createdAt,value
2017-10-19T00:01:41.183Z,8.40
2017-10-19T00:04:09.594Z,8.40
2017-10-19T00:06:38.022Z,8.30
2017-10-19T00:09:07.190Z,8.30
2017-10-19T00:11:35.601Z,8.30
2017-10-19T00:14:04.799Z,8.40
2017-10-19T00:16:33.988Z,8.30
2017-10-19T00:19:03.223Z,8.20
2017-10-19T00:21:31.642Z,8.20
2017-10-19T00:24:00.050Z,8.20
2017-10-19T00:26:29.218Z,8.10
2017-10-19T00:28:57.634Z,8.10
2017-10-19T00:31:26.088Z,8.10
2017-10-19T00:33:54.502Z,8.10
2017-10-19T00:36:22.930Z,8.10
2017-10-19T00:38:51.339Z,8.00
2017-10-19T00:41:20.509Z,8.00
2017-10-19T00:43:48.927Z,8.00
2017-10-19T00:46:17.328Z,8.00
2017-10-19T00:48:45.731Z,8.00
2017-10-19T00:51:14.177Z,7.90
2017-10-19T00:53:42.244Z,7.90
2017-10-19T00:56:09.963Z,7.80
2017-10-19T00:58:37.690Z,7.80
2017-10-19T01:01:06.086Z,7.80
2017-10-19T01:03:34.494Z,7.80
2017-10-19T01:06:03.678Z,7.80
2017-10-19T01:08:32.078Z,7.70
2017-10-19T01:11:01.259Z,7.70
2017-10-19T01:13:30.462Z,7.70
2017-10-19T01:15:59.291Z,7.70
2017-10-19T01:18:27.702Z,7.70
2017-10-19T01:20:56.124Z,7.70
2017-10-19T01:23:23.839Z,7.60
2017-10-19T01:25:51.900Z,7.60
2017-10-19T01:28:19.985Z,7.60
2017-10-19T01:30:48.457Z,7.60
2017-10-19T01:33:16.524Z,7.60
2017-10-19T01:35:44.257Z,7.50
2017-10-19T01:38:11.964Z,7.50
2017-10-19T01:40:39.670Z,7.40
2017-10-19T01:43:07.750Z,7.40
2017-10-19T01:45:35.814Z,7.40
2017-10-19T01:48:03.530Z,7.40
2017-10-19T01:50:31.262Z,7.40
2017-10-19T01:52:59.315Z,7.40
2017-10-19T01:55:28.078Z,7.30
2017-10-19T01:57:57.270Z,7.30
2017-10-19T02:00:26.532Z,7.30
2017-10-19T02:02:54.597Z,7.30
2017-10-19T02:05:23.028Z,7.30
2017-10-19T02:07:51.437Z,7.20
2017-10-19T02:10:19.838Z,7.20
2017-10-19T02:12:48.259Z,7.10
2017-10-19T02:15:17.437Z,7.10
2017-10-19T02:17:46.612Z,7.10
2017-10-19T02:20:15.023Z,7.10
2017-10-19T02:22:44.194Z,7.10
2017-10-19T02:25:12.615Z,7.10
2017-10-19T02:27:41.039Z,7.00
2017-10-19T02:30:09.484Z,7.00
2017-10-19T02:32:37.947Z,7.00
2017-10-19T02:35:06.367Z,7.00
2017-10-19T02:37:34.774Z,7.00
2017-10-19T02:40:03.177Z,7.00
2017-10-19T02:42:32.363Z,6.90
2017-10-19T02:45:00.777Z,6.90
2017-10-19T02:47:29.182Z,6.90
2017-10-19T02:49:57.600Z,6.90
2017-10-19T02:52:26.775Z,6.90
2017-10-19T02:54:55.194Z,6.90
2017-10-19T02:57:22.918Z,6.90
2017-10-19T02:59:51.322Z,6.90
2017-10-19T03:02:20.545Z,6.90
2017-10-19T03:04:48.978Z,6.90
2017-10-19T03:07:17.392Z,6.90
2017-10-19T03:09:45.441Z,6.90
2017-10-19T03:12:14.629Z,6.80
2017-10-19T03:14:43.806Z,6.80
2017-10-19T03:17:12.201Z,6.80
2017-10-19T03:19:41.384Z,6.80
2017-10-19T03:22:09.785Z,6.80
2017-10-19T03:24:38.953Z,6.70
2017-10-19T03:27:07.375Z,6.70
2017-10-19T03:29:35.775Z,6.70
2017-10-19T03:32:04.206Z,6.70
2017-10-19T03:34:32.728Z,6.70
2017-10-19T03:37:01.133Z,6.60
2017-10-19T03:39:29.534Z,6.60
2017-10-19T03:41:57.950Z,6.60
2017-10-19T03:44:26.662Z,6.60
2017-10-19T03:46:55.221Z,6.70
2017-10-19T03:49:23.630Z,6.70
2017-10-19T03:51:52.026Z,6.70
2017-10-19T03:54:20.431Z,6.70
2017-10-19T03:56:49.480Z,6.70
2017-10-19T03:59:17.885Z,6.70
2017-10-19T04:01:47.454Z,6.70
2017-10-19T04:04:15.879Z,6.70
2017-10-19T04:06:44.278Z,6.80
2017-10-19T04:09:12.678Z,6.90
2017-10-19T04:11:41.106Z,7.00
2017-10-19T04:14:10.290Z,7.00
2017-10-19T04:16:38.693Z,7.00
2017-10-19T04:19:07.874Z,7.00
2017-10-19T04:21:36.278Z,6.90
2017-10-19T04:24:05.437Z,6.90
2017-10-19T04:26:33.849Z,6.90
2017-10-19T04:29:03.011Z,6.80
2017-10-19T04:31:31.415Z,6.80
2017-10-19T04:34:00.608Z,6.80
2017-10-19T04:36:29.023Z,6.80
2017-10-19T04:38:57.437Z,6.80
2017-10-19T04:41:25.852Z,6.80
2017-10-19T04:43:55.016Z,6.70
2017-10-19T04:46:23.423Z,6.70
2017-10-19T04:48:51.922Z,6.70
2017-10-19T04:51:20.135Z,6.70
2017-10-19T04:53:48.543Z,6.70
2017-10-19T04:56:16.975Z,6.70
2017-10-19T04:58:45.380Z,6.70
2017-10-19T05:01:13.788Z,6.60
2017-10-19T05:03:43.940Z,6.50
2017-10-19T05:06:12.629Z,6.50
2017-10-19T05:08:40.685Z,6.50
2017-10-19T05:11:08.421Z,6.50
2017-10-19T05:13:37.675Z,6.50
2017-10-19T05:16:06.082Z,6.50
2017-10-19T05:18:34.501Z,6.50
2017-10-19T05:21:02.915Z,6.40
2017-10-19T05:23:31.318Z,6.40
2017-10-19T05:25:59.738Z,6.40
2017-10-19T05:28:29.856Z,6.50
2017-10-19T05:30:57.618Z,6.70
2017-10-19T05:33:26.200Z,6.80
2017-10-19T05:35:54.593Z,6.80
2017-10-19T05:38:22.990Z,6.80
2017-10-19T05:40:51.397Z,6.80
2017-10-19T05:43:19.804Z,6.80
2017-10-19T05:45:48.965Z,6.70
2017-10-19T05:48:17.383Z,6.70
2017-10-19T05:50:46.551Z,6.60
2017-10-19T05:53:14.955Z,6.60
2017-10-19T05:55:44.141Z,6.80
2017-10-19T05:58:13.316Z,6.80
2017-10-19T06:00:41.727Z,6.70
2017-10-19T06:03:10.905Z,6.90
2017-10-19T06:05:39.311Z,6.90
2017-10-19T06:08:08.521Z,6.90
2017-10-19T06:10:37.000Z,6.90
2017-10-19T06:13:05.413Z,6.90
2017-10-19T06:15:33.858Z,6.80
2017-10-19T06:18:02.287Z,6.70
2017-10-19T06:20:30.697Z,6.70
2017-10-19T06:22:59.124Z,6.70
2017-10-19T06:25:27.771Z,6.80
2017-10-19T06:27:56.302Z,6.80
2017-10-19T06:30:25.476Z,7.30
2017-10-19T06:32:53.894Z,7.20
2017-10-19T06:35:22.878Z,7.50
2017-10-19T06:37:52.790Z,7.70
2017-10-19T06:40:21.206Z,7.70
2017-10-19T06:42:49.602Z,7.80
2017-10-19T06:45:18.076Z,8.00
2017-10-19T06:47:46.502Z,8.10
2017-10-19T06:50:14.905Z,8.10
2017-10-19T06:52:44.086Z,8.40
2017-10-19T06:55:12.518Z,8.40
2017-10-19T06:57:40.926Z,8.60
2017-10-19T07:00:09.330Z,8.70
2017-10-19T07:02:38.513Z,8.90
2017-10-19T07:05:06.919Z,8.90
2017-10-19T07:07:35.321Z,9.00
2017-10-19T07:10:03.406Z,9.30
2017-10-19T07:12:31.817Z,10.20
2017-10-19T07:14:59.879Z,11.40
2017-10-19T07:17:28.296Z,12.50
2017-10-19T07:19:56.518Z,13.30
2017-10-19T07:22:24.927Z,14.10
2017-10-19T07:24:53.366Z,14.80
2017-10-19T07:27:21.658Z,15.40
2017-10-19T07:29:49.728Z,15.40
2017-10-19T07:32:18.150Z,15.40
2017-10-19T07:34:47.334Z,16.30
2017-10-19T07:37:16.503Z,16.40
2017-10-19T07:39:44.927Z,16.40
2017-10-19T07:42:13.338Z,16.60
2017-10-19T07:44:41.750Z,16.90
2017-10-19T07:47:10.193Z,17.50
2017-10-19T07:49:38.429Z,17.80
2017-10-19T07:52:07.601Z,18.60
2017-10-19T07:54:36.021Z,18.60
2017-10-19T07:57:04.431Z,19.00
2017-10-19T07:59:32.841Z,19.10
2017-10-19T08:02:02.034Z,19.70
2017-10-19T08:04:30.443Z,19.70
2017-10-19T08:06:58.840Z,19.60
2017-10-19T08:09:27.260Z,20.00
2017-10-19T08:11:55.464Z,20.40
2017-10-19T08:14:24.630Z,20.60
2017-10-19T08:16:53.057Z,20.50
2017-10-19T08:19:21.458Z,20.40
2017-10-19T08:21:49.858Z,20.70
2017-10-19T08:24:18.294Z,20.90
2017-10-19T08:26:46.521Z,21.10
2017-10-19T08:29:14.739Z,21.00
2017-10-19T08:31:42.990Z,20.70
2017-10-19T08:34:12.169Z,19.40
2017-10-19T08:36:40.584Z,19.30
2017-10-19T08:39:09.002Z,19.00
2017-10-19T08:41:37.409Z,18.80
2017-10-19T08:44:05.635Z,18.30
2017-10-19T08:46:34.059Z,18.00
2017-10-19T08:49:02.465Z,18.10
2017-10-19T08:51:30.881Z,18.60
2017-10-19T08:53:59.301Z,19.50
2017-10-19T08:56:28.471Z,21.00
2017-10-19T08:58:56.885Z,20.90
2017-10-19T09:01:26.073Z,21.90
2017-10-19T09:03:55.239Z,21.50
2017-10-19T09:06:23.652Z,21.50
2017-10-19T09:08:52.861Z,21.40
2017-10-19T09:11:22.030Z,21.40
2017-10-19T09:13:51.963Z,21.60
2017-10-19T09:16:21.153Z,21.30
2017-10-19T09:18:50.317Z,21.10
2017-10-19T09:21:18.729Z,21.10
2017-10-19T09:23:47.907Z,22.00
2017-10-19T09:26:16.306Z,21.90
2017-10-19T09:28:45.470Z,22.50
2017-10-19T09:31:13.899Z,22.50
2017-10-19T09:33:42.297Z,22.80
2017-10-19T09:36:10.719Z,22.80
2017-10-19T09:38:39.139Z,23.30
2017-10-19T09:41:07.584Z,24.10
2017-10-19T09:43:35.998Z,23.60
2017-10-19T09:46:04.418Z,23.00
2017-10-19T09:48:32.630Z,23.30
2017-10-19T09:51:01.807Z,24.20
2017-10-19T09:53:30.228Z,24.20
2017-10-19T09:55:58.654Z,24.40
2017-10-19T09:58:27.058Z,24.90
2017-10-19T10:00:56.262Z,25.80
2017-10-19T10:03:24.502Z,25.80
2017-10-19T10:05:52.897Z,26.20
2017-10-19T10:08:22.087Z,26.20
2017-10-19T10:10:50.490Z,26.20
2017-10-19T10:13:19.669Z,25.50
2017-10-19T10:15:48.939Z,25.90
2017-10-19T10:18:16.999Z,25.90
2017-10-19T10:20:45.403Z,26.10
2017-10-19T10:23:13.483Z,26.30
2017-10-19T10:25:41.891Z,25.70
2017-10-19T10:28:09.956Z,26.00
2017-10-19T10:30:39.140Z,26.60
2017-10-19T10:33:08.449Z,27.00
2017-10-19T10:35:37.624Z,26.90
2017-10-19T10:38:06.828Z,26.70
2017-10-19T10:40:35.991Z,26.50
2017-10-19T10:43:04.395Z,26.50
2017-10-19T10:45:32.815Z,26.30
2017-10-19T10:48:01.215Z,26.90
2017-10-19T10:50:29.274Z,26.70
2017-10-19T10:52:57.699Z,26.90
2017-10-19T10:55:25.418Z,26.70
2017-10-19T10:57:53.817Z,26.20
2017-10-19T11:00:22.068Z,25.90
2017-10-19T11:02:50.484Z,24.50
2017-10-19T11:05:18.890Z,23.10
2017-10-19T11:07:48.078Z,21.90
2017-10-19T11:10:17.266Z,21.50
2017-10-19T11:12:47.190Z,21.20
2017-10-19T11:15:16.380Z,21.20
2017-10-19T11:17:46.528Z,22.40
2017-10-19T11:20:14.940Z,22.40
2017-10-19T11:22:43.354Z,23.70
2017-10-19T11:25:12.553Z,25.50
2017-10-19T11:27:41.730Z,26.20
2017-10-19T11:30:10.165Z,26.20
2017-10-19T11:32:38.648Z,25.60
2017-10-19T11:35:06.864Z,24.50
2017-10-19T11:37:36.056Z,22.80
2017-10-19T11:40:03.770Z,22.80
2017-10-19T11:42:32.172Z,22.30
2017-10-19T11:45:00.581Z,21.90
2017-10-19T11:47:29.755Z,21.80
2017-10-19T11:49:58.196Z,21.80
2017-10-19T11:52:26.628Z,21.60
2017-10-19T11:54:55.033Z,21.50
2017-10-19T11:57:24.214Z,21.50
2017-10-19T11:59:52.466Z,21.50
2017-10-19T12:02:20.875Z,21.40
2017-10-19T12:04:49.290Z,21.40
2017-10-19T12:07:17.719Z,21.20
2017-10-19T12:09:46.130Z,21.10
2017-10-19T12:12:14.531Z,21.20
2017-10-19T12:14:42.960Z,20.90
2017-10-19T12:17:11.370Z,21.10
2017-10-19T12:19:39.798Z,21.20
2017-10-19T12:22:08.222Z,21.20
2017-10-19T12:24:37.395Z,20.90
2017-10-19T12:27:05.810Z,20.90
2017-10-19T12:29:34.238Z,21.00
2017-10-19T12:32:02.650Z,21.00
2017-10-19T12:34:31.835Z,20.60
2017-10-19T12:37:01.014Z,20.70
2017-10-19T12:39:29.419Z,20.70
2017-10-19T12:41:58.602Z,20.60
2017-10-19T12:44:27.026Z,20.50
2017-10-19T12:46:55.425Z,20.40
2017-10-19T12:49:23.829Z,20.30
2017-10-19T12:51:52.256Z,20.20
2017-10-19T12:54:20.657Z,20.10
2017-10-19T12:56:49.063Z,19.90
2017-10-19T12:59:18.253Z,19.70
2017-10-19T13:01:46.653Z,19.70
2017-10-19T13:04:15.820Z,19.70
2017-10-19T13:06:44.066Z,19.60
2017-10-19T13:09:12.480Z,19.50
2017-10-19T13:11:42.422Z,19.50
2017-10-19T13:14:11.071Z,19.40
2017-10-19T13:16:39.487Z,19.50
2017-10-19T13:19:08.674Z,19.40
2017-10-19T13:21:37.871Z,19.60
2017-10-19T13:24:07.045Z,19.60
2017-10-19T13:26:35.457Z,19.60
2017-10-19T13:29:04.650Z,19.70
2017-10-19T13:31:33.825Z,19.60
2017-10-19T13:34:02.235Z,19.60
2017-10-19T13:36:30.666Z,19.60
2017-10-19T13:38:59.067Z,19.50
2017-10-19T13:41:28.249Z,19.40
2017-10-19T13:43:56.671Z,19.40
2017-10-19T13:46:25.091Z,19.50
2017-10-19T13:48:53.502Z,19.50
2017-10-19T13:51:22.700Z,19.50
2017-10-19T13:53:51.874Z,19.40
2017-10-19T13:56:20.284Z,19.40
2017-10-19T13:58:49.482Z,19.40
2017-10-19T14:01:18.680Z,19.30
2017-10-19T14:03:47.090Z,19.20
2017-10-19T14:06:15.522Z,19.20
2017-10-19T14:08:44.709Z,19.30
2017-10-19T14:11:13.110Z,19.30
2017-10-19T14:13:42.334Z,19.20
2017-10-19T14:16:10.741Z,19.20
2017-10-19T14:18:39.135Z,19.20
2017-10-19T14:21:07.556Z,19.10
2017-10-19T14:23:35.961Z,19.10
2017-10-19T14:26:04.462Z,19.10
2017-10-19T14:28:33.920Z,19.00
2017-10-19T14:31:02.361Z,19.00
2017-10-19T14:33:30.761Z,19.00
2017-10-19T14:35:59.778Z,18.90
2017-10-19T14:38:28.013Z,18.90
2017-10-19T14:40:56.426Z,18.90
2017-10-19T14:43:24.663Z,18.90
2017-10-19T14:45:53.087Z,18.80
2017-10-19T14:48:21.495Z,18.80
2017-10-19T14:50:49.919Z,18.70
2017-10-19T14:53:18.342Z,18.80
2017-10-19T14:55:46.752Z,18.70
2017-10-19T14:58:15.190Z,18.70
2017-10-19T15:00:43.614Z,18.60
2017-10-19T15:03:12.014Z,18.60
2017-10-19T15:05:40.484Z,18.50
2017-10-19T15:08:09.146Z,18.40
2017-10-19T15:10:37.578Z,18.40
2017-10-19T15:13:06.005Z,18.20
2017-10-19T15:15:34.432Z,18.20
2017-10-19T15:18:02.850Z,18.20
2017-10-19T15:20:32.277Z,18.10
2017-10-19T15:23:00.692Z,18.10
2017-10-19T15:25:29.089Z,18.10
2017-10-19T15:27:57.512Z,17.90
2017-10-19T15:30:25.922Z,17.80
2017-10-19T15:32:54.343Z,17.90
2017-10-19T15:35:22.769Z,17.80
2017-10-19T15:37:51.939Z,17.70
2017-10-19T15:40:20.347Z,17.60
2017-10-19T15:42:48.780Z,17.70
2017-10-19T15:47:52.263Z,17.60
2017-10-19T15:50:20.673Z,17.40
2017-10-19T15:52:49.131Z,17.30
2017-10-19T15:55:17.557Z,17.10
2017-10-19T15:57:46.754Z,16.90
2017-10-19T16:00:15.407Z,16.90
2017-10-19T16:02:43.831Z,16.80
2017-10-19T16:05:13.015Z,16.60
2017-10-19T16:07:42.183Z,16.50
2017-10-19T16:10:10.615Z,16.50
2017-10-19T16:12:39.443Z,16.50
2017-10-19T16:15:07.860Z,16.40
2017-10-19T16:17:37.045Z,16.30
2017-10-19T16:20:05.467Z,16.20
2017-10-19T16:22:33.891Z,16.20
2017-10-19T16:25:02.339Z,16.20
2017-10-19T16:27:30.744Z,16.10
2017-10-19T16:29:59.179Z,16.10
2017-10-19T16:32:27.611Z,16.00
2017-10-19T16:34:56.022Z,15.90
2017-10-19T16:37:24.435Z,15.80
2017-10-19T16:39:52.870Z,15.70
2017-10-19T16:42:22.073Z,15.60
2017-10-19T16:44:51.254Z,15.50
2017-10-19T16:47:20.486Z,15.40
2017-10-19T16:49:48.914Z,15.40
2017-10-19T16:52:17.325Z,15.40
2017-10-19T16:54:45.749Z,15.30
2017-10-19T16:57:14.170Z,15.30
2017-10-19T16:59:43.352Z,15.20
2017-10-19T17:02:11.780Z,15.10
2017-10-19T17:04:40.200Z,15.00
2017-10-19T17:07:08.627Z,15.00
2017-10-19T17:09:37.205Z,14.90
2017-10-19T17:12:05.630Z,14.90
2017-10-19T17:14:34.055Z,15.00
2017-10-19T17:17:02.759Z,14.90
2017-10-19T17:19:31.175Z,14.80
2017-10-19T17:21:59.593Z,14.90
2017-10-19T17:24:28.779Z,14.70
2017-10-19T17:26:57.965Z,14.60
2017-10-19T17:29:26.376Z,14.60
2017-10-19T17:31:54.803Z,14.60
2017-10-19T17:34:23.214Z,14.70
2017-10-19T17:36:52.387Z,14.80
2017-10-19T17:39:20.807Z,14.80
2017-10-19T17:41:49.226Z,14.70
2017-10-19T17:44:17.630Z,14.70
2017-10-19T17:46:46.062Z,14.60
2017-10-19T17:49:14.474Z,14.50
2017-10-19T17:51:42.538Z,14.50
2017-10-19T17:54:10.969Z,14.50
2017-10-19T17:56:39.382Z,14.40
2017-10-19T17:59:07.450Z,14.40
2017-10-19T18:01:35.876Z,14.30
2017-10-19T18:04:05.074Z,14.10
2017-10-19T18:06:33.956Z,14.00
2017-10-19T18:09:03.161Z,13.90
2017-10-19T18:11:32.337Z,13.90
2017-10-19T18:14:00.754Z,13.90
2017-10-19T18:16:29.186Z,13.90
2017-10-19T18:18:57.407Z,13.90
2017-10-19T18:21:25.824Z,13.90
2017-10-19T18:23:54.249Z,13.80
2017-10-19T18:26:23.425Z,13.80
2017-10-19T18:28:52.603Z,13.70
2017-10-19T18:31:21.031Z,13.70
2017-10-19T18:33:49.263Z,13.70
2017-10-19T18:36:17.488Z,13.70
2017-10-19T18:38:45.924Z,13.70
2017-10-19T18:41:14.583Z,13.70
2017-10-19T18:43:43.005Z,13.60
2017-10-19T18:46:12.253Z,13.50
2017-10-19T18:48:40.666Z,13.50
2017-10-19T18:51:09.095Z,13.50
2017-10-19T18:53:37.515Z,13.50
2017-10-19T18:56:07.434Z,13.40
2017-10-19T18:58:37.366Z,13.40
2017-10-19T19:01:06.591Z,13.40
2017-10-19T19:03:35.003Z,13.30
2017-10-19T19:06:03.417Z,13.30
2017-10-19T19:08:32.611Z,13.20
2017-10-19T19:11:01.790Z,13.20
2017-10-19T19:13:30.210Z,13.20
2017-10-19T19:15:58.643Z,13.10
2017-10-19T19:18:27.047Z,13.10
2017-10-19T19:20:56.218Z,12.80
2017-10-19T19:23:24.658Z,12.80
2017-10-19T19:25:53.076Z,12.70
2017-10-19T19:28:21.486Z,12.50
2017-10-19T19:30:50.689Z,12.40
2017-10-19T19:33:19.861Z,12.30
2017-10-19T19:35:48.270Z,12.30
2017-10-19T19:38:16.700Z,12.30
2017-10-19T19:40:45.118Z,12.30
2017-10-19T19:43:14.298Z,12.10
2017-10-19T19:45:42.722Z,12.10
2017-10-19T19:48:11.136Z,12.10
2017-10-19T19:50:39.545Z,12.10
2017-10-19T19:53:07.976Z,12.00
2017-10-19T19:55:36.383Z,11.90
2017-10-19T19:58:04.793Z,11.90
2017-10-19T20:00:33.231Z,11.80
2017-10-19T20:03:01.637Z,11.70
2017-10-19T20:05:30.299Z,11.70
2017-10-19T20:07:58.715Z,11.60
2017-10-19T20:10:27.418Z,11.60
2017-10-19T20:12:56.205Z,11.50
2017-10-19T20:15:24.643Z,11.50
2017-10-19T20:17:53.061Z,11.40
2017-10-19T20:20:21.492Z,11.30
2017-10-19T20:22:49.914Z,11.30
2017-10-19T20:25:18.329Z,11.40
2017-10-19T20:27:46.743Z,11.40
2017-10-19T20:30:15.935Z,11.50
2017-10-19T20:32:45.111Z,11.40
2017-10-19T20:35:13.514Z,11.40
2017-10-19T20:37:42.702Z,11.30
2017-10-19T20:40:11.538Z,11.30
2017-10-19T20:42:39.946Z,11.20
2017-10-19T20:45:08.374Z,11.20
2017-10-19T20:47:36.778Z,11.20
2017-10-19T20:50:05.202Z,11.20
2017-10-19T20:52:33.727Z,11.10
2017-10-19T20:55:02.142Z,11.00
2017-10-19T20:57:30.659Z,11.00
2017-10-19T20:59:59.863Z,11.00
2017-10-19T21:02:28.286Z,10.90
2017-10-19T21:04:56.707Z,10.90
2017-10-19T21:07:25.130Z,11.00
2017-10-19T21:09:53.603Z,11.00
2017-10-19T21:12:22.013Z,11.00
2017-10-19T21:14:50.445Z,10.90
2017-10-19T21:17:18.661Z,10.80
2017-10-19T21:19:47.075Z,10.80
2017-10-19T21:22:16.277Z,10.60
2017-10-19T21:24:45.455Z,10.60
2017-10-19T21:27:14.635Z,10.50
2017-10-19T21:29:43.059Z,10.40
2017-10-19T21:32:11.479Z,10.40
2017-10-19T21:34:39.882Z,10.40
2017-10-19T21:37:08.314Z,10.40
2017-10-19T21:39:36.742Z,10.40
2017-10-19T21:42:06.662Z,10.10
2017-10-19T21:44:35.090Z,10.10
2017-10-19T21:47:03.504Z,10.10
2017-10-19T21:49:31.940Z,10.10
2017-10-19T21:52:00.366Z,10.10
2017-10-19T21:54:28.775Z,10.10
2017-10-19T21:56:57.955Z,10.10
2017-10-19T21:59:27.161Z,10.10
2017-10-19T22:01:55.673Z,10.10
2017-10-19T22:04:24.090Z,10.00
2017-10-19T22:06:52.509Z,10.00
2017-10-19T22:09:21.483Z,9.90
2017-10-19T22:11:50.477Z,9.90
2017-10-19T22:14:19.677Z,9.90
2017-10-19T22:16:48.859Z,9.80
2017-10-19T22:19:17.257Z,9.80
2017-10-19T22:21:46.437Z,9.80
2017-10-19T22:24:15.613Z,9.80
2017-10-19T22:26:44.027Z,9.70
2017-10-19T22:29:13.212Z,9.70
2017-10-19T22:31:42.389Z,9.70
2017-10-19T22:34:10.798Z,9.60
2017-10-19T22:36:39.989Z,9.60
2017-10-19T22:39:09.171Z,9.60
2017-10-19T22:41:37.587Z,9.60
2017-10-19T22:44:06.011Z,9.50
2017-10-19T22:46:34.418Z,9.40
2017-10-19T22:49:03.615Z,9.30
2017-10-19T22:51:32.808Z,9.40
2017-10-19T22:54:01.225Z,9.30
2017-10-19T22:56:29.638Z,9.30
2017-10-19T22:58:58.064Z,9.30
2017-10-19T23:01:27.232Z,9.20
2017-10-19T23:03:55.642Z,9.10
2017-10-19T23:06:24.072Z,9.10
2017-10-19T23:08:52.490Z,9.10
2017-10-19T23:11:21.662Z,9.10
2017-10-19T23:13:50.096Z,9.10
2017-10-19T23:16:18.511Z,9.10
2017-10-19T23:18:46.915Z,9.00
2017-10-19T23:21:16.102Z,9.00
2017-10-19T23:23:44.519Z,8.90
2017-10-19T23:26:12.938Z,8.90
2017-10-19T23:28:41.368Z,8.90
2017-10-19T23:31:09.777Z,8.90
2017-10-19T23:33:38.190Z,8.90
2017-10-19T23:36:06.610Z,8.90
2017-10-19T23:38:35.011Z,8.90
2017-10-19T23:41:03.419Z,8.80
2017-10-19T23:43:31.837Z,8.80
2017-10-19T23:46:00.255Z,8.80
2017-10-19T23:48:28.658Z,8.70
2017-10-19T23:50:57.078Z,8.80
2017-10-19T23:53:25.478Z,8.80
2017-10-19T23:55:53.878Z,8.70
2017-10-19T23:58:22.302Z,8.70
